EW6604 Weather Reports


Display with metric or nautical units.
time (UTC)temp
F
wind
direction
speed
MPH
gust
MPH
rain 1hr
in
rain 24hr
in
rain mn
in
humidity
%
barometer
mb
20200531232224 84 143 1.0 4.0 0.00 0.00 0.00 1 1014.5
20200531231726 85 127 1.0 4.0 0.00 0.00 0.00 1 1014.5
20200531231209 85 123 1.0 4.0 0.00 0.00 0.00 1 1014.5
20200531230711 85 134 1.0 3.0 0.00 0.00 0.00 1 1014.5
20200531230218 85 155 0.0 3.0 0.00 0.00 0.00 1 1014.5
20200531225717 85 180 1.0 6.0 0.00 0.04 0.00 1 1014.4
20200531225218 85 124 2.0 7.0 0.00 0.04 0.00 1 1014.4
20200531224720 86 359 3.0 7.0 0.00 0.04 0.00 1 1014.3
20200531224221 86 115 2.0 7.0 0.00 0.04 0.00 1 1014.2
20200531223723 86 124 0.0 5.0 0.00 0.04 0.00 2 1014.2
20200531223226 87 129 1.0 5.0 0.00 0.04 0.00 5 1014.3
20200531222721 87 337 1.0 5.0 0.00 0.04 0.00 8 1014.3
20200531222220 86 121 2.0 5.0 0.00 0.04 0.00 16 1014.2
20200531221725 86 100 3.0 8.0 0.00 0.04 0.00 1 1014.1
20200531221225 86 78 4.0 8.0 0.00 0.04 0.00 5 1014.1
20200531220725 86 86 4.0 12.0 0.00 0.04 0.00 8 1014.1
20200531220224 86 79 8.0 12.0 0.00 0.04 0.00 9 1014.1
20200531215727 86 89 4.0 11.0 0.00 0.04 0.00 7 1014.1
20200531215225 86 245 6.0 12.0 0.00 0.04 0.00 5 1014.1
20200531214724 85 82 9.0 13.0 0.00 0.04 0.00 1 1014.0
20200531214226 86 80 11.0 13.0 0.00 0.04 0.00 1 1013.9
20200531213727 85 74 5.0 14.0 0.00 0.04 0.00 1 1014.0
20200531213210 85 80 10.0 14.0 0.00 0.04 0.00 1 1014.1
20200531212709 85 77 9.0 13.0 0.00 0.04 0.00 1 1014.1
20200531212212 85 78 10.0 13.0 0.00 0.04 0.00 1 1014.2
20200531211713 85 96 7.0 13.0 0.00 0.04 0.00 1 1014.3
20200531211216 85 92 9.0 13.0 0.00 0.04 0.00 1 1014.3
20200531210718 85 81 10.0 12.0 0.00 0.04 0.00 3 1014.3
20200531210217 86 84 4.0 6.0 0.00 0.04 0.00 1 1014.4
20200531205719 86 99 1.0 9.0 0.00 0.04 0.00 1 1014.4
20200531205223 86 96 0.0 11.0 0.00 0.04 0.00 1 1014.5
20200531204726 86 86 8.0 12.0 0.00 0.04 0.00 1 1014.5
20200531204227 85 77 10.0 12.0 0.00 0.04 0.00 1 1014.5
20200531203709 86 70 11.0 12.0 0.00 0.04 0.00 1 1014.5
20200531203213 85 77 9.0 10.0 0.00 0.04 0.00 1 1014.6
20200531202711 85 76 8.0 11.0 0.00 0.04 0.00 1 1014.6
20200531202215 85 68 10.0 12.0 0.00 0.04 0.00 1 1014.5
20200531201717 85 59 11.0 12.0 0.00 0.04 0.00 1 1014.5
20200531201219 85 68 11.0 14.0 0.00 0.04 0.00 1 1014.6
20200531200721 85 74 13.0 16.0 0.00 0.04 0.00 1 1014.6
20200531200223 85 53 14.0 16.0 0.00 0.04 0.00 1 1014.7
20200531195725 85 58 14.0 16.0 0.00 0.04 0.00 1 1014.7
20200531195226 86 55 12.0 17.0 0.00 0.04 0.00 1 1014.7
20200531194709 86 67 15.0 17.0 0.00 0.04 0.00 1 1014.7
20200531194211 87 53 14.0 16.0 0.00 0.04 0.00 24 1014.7
20200531193715 87 72 8.0 13.0 0.00 0.04 0.00 33 1014.7
20200531193217 88 66 9.0 13.0 0.00 0.04 0.00 42 1014.8
20200531192716 89 36 0.0 0.0 0.00 0.04 0.00 47 1014.8
20200531192217 89 27 0.0 2.0 0.00 0.04 0.00 48 1014.8
20200531191720 89 25 0.0 2.0 0.00 0.04 0.00 51 1015.0
20200531191221 89 25 0.0 0.0 0.00 0.04 0.00 51 1014.9
20200531190714 89 25 0.0 0.0 0.00 0.04 0.00 51 1014.9
20200531190213 89 32 0.0 0.0 0.00 0.04 0.00 51 1015.0
20200531185709 89 32 0.0 0.0 0.00 0.04 0.00 51 1015.0
20200531185212 89 32 0.0 0.0 0.00 0.04 0.00 51 1014.9
20200531184710 89 32 0.0 1.0 0.00 0.04 0.00 50 1014.9
20200531184209 88 32 0.0 2.0 0.00 0.04 0.00 49 1015.0
20200531183708 88 32 0.0 2.0 0.00 0.04 0.00 45 1015.0
20200531183228 88 27 1.0 3.0 0.00 0.04 0.00 42 1015.1
20200531182723 87 18 1.0 3.0 0.00 0.04 0.00 41 1015.2
20200531182223 87 79 2.0 5.0 0.00 0.04 0.00 35 1015.3
20200531181723 87 79 3.0 8.0 0.00 0.04 0.00 33 1015.4
20200531181222 87 84 6.0 8.0 0.00 0.04 0.00 40 1015.5
20200531180720 87 86 4.0 6.0 0.00 0.04 0.00 32 1015.5
20200531180219 86 100 2.0 6.0 0.00 0.04 0.00 21 1015.5
20200531175714 86 89 3.0 7.0 0.00 0.04 0.00 22 1015.6
20200531175214 86 86 5.0 7.0 0.00 0.04 0.00 26 1015.8
20200531174714 86 132 2.0 5.0 0.00 0.04 0.00 5 1015.9
20200531174214 86 120 2.0 5.0 0.00 0.04 0.00 9 1015.9
20200531173729 85 119 1.0 6.0 0.00 0.04 0.00 7 1015.9
20200531173226 85 103 3.0 7.0 0.00 0.04 0.00 5 1015.9
20200531172719 86 149 2.0 7.0 0.00 0.04 0.00 1 1016.1
20200531172217 86 318 0.0 4.0 0.00 0.04 0.00 14 1016.1
20200531171714 86 319 4.0 4.0 0.00 0.04 0.00 16 1016.1
20200531171213 86 13 0.0 1.0 0.00 0.04 0.00 10 1016.0
20200531170730 86 13 0.0 2.0 0.00 0.04 0.00 10 1016.0
20200531170226 86 13 0.0 2.0 0.00 0.04 0.00 6 1016.0
20200531165719 86 11 1.0 3.0 0.00 0.04 0.00 1 1016.0
20200531165219 86 351 2.0 3.0 0.00 0.04 0.00 1 1016.1
20200531164717 86 11 2.0 3.0 0.00 0.04 0.00 1 1016.1
20200531164216 85 14 2.0 3.0 0.00 0.04 0.00 1 1016.2
20200531163712 85 353 3.0 5.0 0.00 0.04 0.00 1 1016.2
20200531163211 85 349 3.0 5.0 0.00 0.04 0.00 1 1016.3
20200531162710 85 348 2.0 3.0 0.00 0.04 0.00 1 1016.3
20200531162210 85 342 2.0 5.0 0.00 0.04 0.00 1 1016.5
20200531161708 85 325 4.0 5.0 0.00 0.04 0.00 1 1016.5
20200531161209 85 325 2.0 3.0 0.00 0.04 0.00 1 1016.5
20200531160728 85 351 1.0 3.0 0.00 0.04 0.00 1 1016.5
20200531160227 85 346 0.0 3.0 0.00 0.04 0.00 1 1016.6
20200531155724 85 353 2.0 3.0 0.00 0.04 0.00 1 1016.6
20200531155222 85 356 1.0 3.0 0.00 0.04 0.00 1 1016.6
20200531154723 85 11 0.0 2.0 0.00 0.04 0.00 1 1016.7
20200531154221 85 337 0.0 2.0 0.00 0.04 0.00 1 1016.7
20200531153722 84 337 0.0 2.0 0.00 0.04 0.00 1 1016.7
20200531153222 84 334 1.0 2.0 0.00 0.04 0.00 1 1016.7
20200531152718 84 358 0.0 0.0 0.00 0.04 0.00 1 1016.8
20200531152217 84 359 0.0 2.0 0.00 0.04 0.00 1 1016.7
20200531151720 83 359 1.0 3.0 0.00 0.04 0.00 1 1016.8
20200531151218 83 359 2.0 3.0 0.00 0.04 0.00 1 1016.8
20200531150717 83 360 1.0 2.0 0.00 0.04 0.00 1 1016.8
20200531150217 83 15 0.0 0.0 0.00 0.04 0.00 1 1016.7
20200531145712 83 15 0.0 0.0 0.00 0.04 0.00 1 1016.7
20200531145211 83 15 0.0 3.0 0.00 0.04 0.00 1 1016.8
20200531144711 82 15 1.0 3.0 0.00 0.04 0.00 1 1016.7
20200531144230 83 27 2.0 3.0 0.00 0.04 0.00 1 1016.7
20200531143726 82 27 1.0 3.0 0.00 0.04 0.00 1 1016.7
20200531143225 82 356 1.0 4.0 0.00 0.04 0.00 1 1016.6
20200531142722 82 342 2.0 4.0 0.00 0.04 0.00 1 1016.6
20200531142222 82 349 3.0 4.0 0.00 0.04 0.00 1 1016.6
20200531141722 82 335 2.0 4.0 0.00 0.04 0.00 1 1016.6
20200531141222 82 339 0.0 3.0 0.00 0.04 0.00 1 1016.6
20200531140725 82 335 2.0 4.0 0.00 0.04 0.00 1 1016.6
20200531140224 82 331 2.0 4.0 0.00 0.04 0.00 1 1016.6
20200531135719 82 295 0.0 5.0 0.00 0.04 0.00 1 1016.6
20200531135218 81 309 2.0 6.0 0.00 0.04 0.00 1 1016.6
20200531134717 81 302 5.0 6.0 0.00 0.04 0.00 1 1016.6
20200531134217 81 293 5.0 6.0 0.00 0.04 0.00 1 1016.6
20200531133716 81 285 4.0 6.0 0.00 0.04 0.00 1 1016.6
20200531133215 81 307 2.0 5.0 0.00 0.04 0.00 1 1016.6
20200531132711 81 289 4.0 5.0 0.00 0.04 0.00 1 1016.6
20200531132209 81 274 2.0 4.0 0.00 0.04 0.00 1 1016.6
20200531131728 81 262 2.0 4.0 0.00 0.04 0.00 1 1016.6
20200531131227 81 262 3.0 4.0 0.00 0.04 0.00 1 1016.5
20200531130727 81 284 1.0 3.0 0.00 0.04 0.00 1 1016.5
20200531130211 80 274 1.0 2.0 0.00 0.04 0.00 1 1016.5
20200531125727 80 271 0.0 2.0 0.00 0.04 0.00 1 1016.5
20200531125226 80 269 1.0 3.0 0.00 0.04 0.00 1 1016.5
20200531124725 79 259 1.0 4.0 0.00 0.04 0.00 1 1016.5
20200531124224 79 260 3.0 4.0 0.00 0.04 0.00 1 1016.4
20200531123723 79 266 1.0 5.0 0.00 0.04 0.00 1 1016.4
20200531123222 78 274 2.0 5.0 0.00 0.04 0.00 1 1016.3
20200531122718 78 281 3.0 5.0 0.00 0.04 0.00 1 1016.3
20200531122217 78 252 3.0 6.0 0.00 0.04 0.00 1 1016.1
20200531121716 77 250 4.0 6.0 0.00 0.04 0.00 1 1016.0
20200531121215 77 253 4.0 5.0 0.00 0.04 0.00 1 1015.9
20200531120715 77 263 3.0 5.0 0.00 0.04 0.00 1 1015.9
20200531120214 77 262 1.0 3.0 0.00 0.04 0.00 1 1015.9
20200531115710 77 247 2.0 4.0 0.00 0.04 0.00 1 1015.8
20200531115213 76 240 1.0 4.0 0.00 0.04 0.00 1 1015.7
20200531114712 76 257 0.0 3.0 0.00 0.04 0.00 1 1015.6
20200531114211 76 98 1.0 3.0 0.00 0.04 0.00 1 1015.7
20200531113710 76 98 1.0 3.0 0.00 0.04 0.00 1 1015.7
20200531113209 76 98 1.0 3.0 0.00 0.04 0.00 1 1015.7
20200531112725 76 98 1.0 3.0 0.00 0.04 0.00 1 1015.6
20200531112225 75 98 0.0 0.0 0.00 0.04 0.00 1 1015.6
20200531111725 75 98 0.0 2.0 0.00 0.04 0.00 1 1015.5
20200531111224 74 98 0.0 2.0 0.00 0.04 0.00 1 1015.5
20200531110724 74 98 0.0 3.0 0.00 0.04 0.00 1 1015.5
20200531110225 73 98 1.0 3.0 0.00 0.04 0.00 1 1015.4
20200531105720 73 98 0.0 3.0 0.00 0.04 0.00 1 1015.4
20200531105227 72 98 0.0 1.0 0.00 0.04 0.00 1 1015.3
20200531104710 72 98 0.0 3.0 0.00 0.04 0.00 1 1015.3
20200531104210 72 98 0.0 3.0 0.00 0.04 0.00 1 1015.2
20200531103710 72 98 2.0 3.0 0.00 0.04 0.00 1 1015.2
20200531103209 72 98 2.0 3.0 0.00 0.04 0.00 1 1015.2
20200531102725 72 98 0.0 0.0 0.00 0.04 0.00 1 1015.2
20200531102224 72 98 0.0 0.0 0.00 0.04 0.00 1 1015.3
20200531101723 73 98 0.0 0.0 0.00 0.04 0.00 1 1015.2
20200531101222 73 98 0.0 0.0 0.00 0.04 0.00 1 1015.3
20200531100721 73 98 0.0 0.0 0.00 0.04 0.00 1 1015.2
20200531100220 73 98 0.0 0.0 0.00 0.04 0.00 1 1015.2
20200531095716 73 98 0.0 0.0 0.00 0.04 0.00 1 1015.2
20200531095212 73 98 0.0 0.0 0.00 0.04 0.00 1 1015.1
20200531094712 73 98 0.0 0.0 0.00 0.04 0.00 1 1015.2
20200531094211 73 98 0.0 0.0 0.00 0.04 0.00 1 1015.1
20200531093714 73 98 0.0 0.0 0.00 0.04 0.00 1 1015.1
20200531093213 73 98 0.0 0.0 0.00 0.04 0.00 1 1015.1
20200531092728 73 98 0.0 0.0 0.00 0.04 0.00 1 1015.0
20200531092228 73 98 0.0 1.0 0.00 0.04 0.00 1 1015.1
20200531091726 73 98 0.0 0.0 0.00 0.04 0.00 1 1015.0
20200531091225 73 98 0.0 0.0 0.00 0.04 0.00 1 1015.2
20200531090725 73 98 0.0 1.0 0.00 0.04 0.00 1 1015.1
20200531090225 73 98 0.0 2.0 0.00 0.04 0.00 1 1015.1
20200531085721 73 98 0.0 2.0 0.00 0.04 0.00 1 1015.1
20200531085220 73 98 0.0 1.0 0.00 0.04 0.00 1 1015.1
20200531084719 73 98 0.0 0.0 0.00 0.04 0.00 1 1015.1
20200531084218 73 98 0.0 1.0 0.00 0.04 0.00 1 1015.1
20200531083717 73 98 0.0 1.0 0.00 0.04 0.00 1 1015.1
20200531083217 73 98 0.0 2.0 0.00 0.04 0.00 1 1014.9
20200531082718 73 98 1.0 2.0 0.00 0.04 0.00 1 1015.0
20200531082218 73 98 1.0 2.0 0.00 0.04 0.00 1 1015.0
20200531081715 73 98 0.0 3.0 0.00 0.04 0.00 1 1015.0
20200531081214 73 98 0.0 3.0 0.00 0.04 0.00 1 1015.0
20200531080714 73 98 1.0 2.0 0.00 0.04 0.00 1 1015.1
20200531080213 74 98 0.0 1.0 0.00 0.04 0.00 1 1015.1
20200531075728 74 98 0.0 2.0 0.00 0.04 0.00 1 1015.1
20200531075227 74 98 0.0 2.0 0.00 0.04 0.00 1 1015.2
20200531074726 74 98 1.0 4.0 0.00 0.04 0.00 1 1015.2
20200531074226 74 98 1.0 5.0 0.00 0.04 0.00 1 1015.2
20200531073726 74 98 3.0 5.0 0.00 0.04 0.00 1 1015.3
20200531073226 74 99 2.0 5.0 0.00 0.04 0.00 1 1015.3
20200531072723 74 99 3.0 5.0 0.00 0.04 0.00 1 1015.3
20200531072223 74 98 2.0 4.0 0.00 0.04 0.00 1 1015.3
20200531071726 74 98 2.0 4.0 0.00 0.04 0.00 1 1015.2
20200531071225 74 98 2.0 3.0 0.00 0.04 0.00 1 1015.2
20200531070725 74 98 0.0 0.0 0.00 0.04 0.00 1 1015.2
20200531070225 74 98 0.0 1.0 0.00 0.04 0.00 1 1015.2
20200531065720 74 98 0.0 1.0 0.00 0.04 0.00 1 1015.2
20200531065219 74 98 0.0 1.0 0.00 0.04 0.00 1 1015.3
20200531064718 74 98 0.0 3.0 0.00 0.04 0.00 1 1015.2
20200531064217 74 98 1.0 3.0 0.00 0.04 0.00 1 1015.2
20200531063716 74 98 0.0 2.0 0.00 0.04 0.00 1 1015.3
20200531063216 74 98 0.0 2.0 0.00 0.04 0.00 1 1015.3
20200531062711 74 98 0.0 1.0 0.00 0.04 0.00 1 1015.3
20200531062210 74 97 0.0 2.0 0.00 0.04 0.00 1 1015.2
20200531061710 74 98 0.0 2.0 0.00 0.04 0.00 1 1015.2
20200531061214 74 98 0.0 2.0 0.00 0.04 0.00 1 1015.3
20200531060713 74 98 0.0 3.0 0.00 0.04 0.00 1 1015.4
20200531060212 74 98 0.0 3.0 0.00 0.04 0.00 1 1015.5
20200531055728 74 98 2.0 3.0 0.00 0.05 0.00 1 1015.6
20200531055227 73 98 0.0 2.0 0.00 0.05 0.00 1 1015.6
20200531054725 73 98 0.0 2.0 0.00 0.05 0.00 1 1015.6
20200531054224 73 98 0.0 1.0 0.00 0.05 0.00 1 1015.8
20200531053723 73 98 0.0 1.0 0.00 0.05 0.00 1 1015.7
20200531053223 73 98 0.0 1.0 0.00 0.05 0.00 1 1015.9
20200531052718 73 98 0.0 1.0 0.00 0.05 0.00 1 1015.9
20200531052217 73 98 0.0 2.0 0.00 0.05 0.00 1 1015.9
20200531051716 73 98 0.0 4.0 0.00 0.05 0.00 1 1016.1
20200531051215 72 98 3.0 4.0 0.00 0.05 0.00 1 1016.3
20200531050715 72 97 0.0 0.0 0.00 0.05 0.00 1 1016.5
20200531050220 72 97 0.0 0.0 0.00 0.05 0.00 1 1016.6
20200531045715 72 97 0.0 0.0 0.00 0.05 0.00 1 1016.6
20200531045214 72 97 0.0 0.0 0.00 0.05 0.00 1 1016.5
20200531044713 72 97 0.0 0.0 0.00 0.05 0.00 1 1016.5
20200531044212 73 97 0.0 0.0 0.00 0.05 0.00 1 1016.4
20200531043711 73 97 0.0 0.0 0.00 0.05 0.00 1 1016.5
20200531043211 73 97 0.0 0.0 0.00 0.05 0.00 1 1016.6
20200531042727 73 97 0.0 0.0 0.00 0.05 0.00 1 1016.5
20200531042226 73 97 0.0 0.0 0.00 0.05 0.00 1 1016.4
20200531041725 73 97 0.0 0.0 0.00 0.05 0.00 1 1016.4
20200531041225 73 97 0.0 0.0 0.00 0.05 0.00 1 1016.4
20200531040726 73 97 0.0 0.0 0.00 0.05 0.00 1 1016.4